sensor_id;sensor_type;location;lat;lon;timestamp;P1;durP1;ratioP1;P2;durP2;ratioP2
15354;SDS011;7777;52.254;9.618;2024-03-02T00:00:26;10.20;;;7.87;;
15354;SDS011;7777;52.254;9.618;2024-03-02T00:02:52;11.27;;;8.43;;
15354;SDS011;7777;52.254;9.618;2024-03-02T00:05:18;10.27;;;8.13;;
15354;SDS011;7777;52.254;9.618;2024-03-02T00:10:21;11.53;;;8.53;;
15354;SDS011;7777;52.254;9.618;2024-03-02T00:12:56;13.30;;;7.67;;
15354;SDS011;7777;52.254;9.618;2024-03-02T00:18:24;9.67;;;7.63;;
15354;SDS011;7777;52.254;9.618;2024-03-02T00:20:59;10.27;;;8.17;;
15354;SDS011;7777;52.254;9.618;2024-03-02T00:23:31;10.37;;;8.17;;
15354;SDS011;7777;52.254;9.618;2024-03-02T00:25:57;12.10;;;7.70;;
15354;SDS011;7777;52.254;9.618;2024-03-02T00:33:25;9.70;;;7.40;;
15354;SDS011;7777;52.254;9.618;2024-03-02T00:35:53;11.00;;;8.33;;
15354;SDS011;7777;52.254;9.618;2024-03-02T00:38:20;11.60;;;8.43;;
15354;SDS011;7777;52.254;9.618;2024-03-02T00:40:45;10.07;;;7.93;;
15354;SDS011;7777;52.254;9.618;2024-03-02T00:43:18;11.30;;;8.53;;
15354;SDS011;7777;52.254;9.618;2024-03-02T00:46:13;12.83;;;8.53;;
15354;SDS011;7777;52.254;9.618;2024-03-02T00:48:47;11.37;;;8.57;;
15354;SDS011;7777;52.254;9.618;2024-03-02T00:51:23;11.53;;;8.03;;
15354;SDS011;7777;52.254;9.618;2024-03-02T00:53:52;10.57;;;8.10;;
15354;SDS011;7777;52.254;9.618;2024-03-02T00:56:21;10.83;;;8.27;;
15354;SDS011;7777;52.254;9.618;2024-03-02T00:58:49;9.93;;;8.17;;
15354;SDS011;7777;52.254;9.618;2024-03-02T01:01:16;11.50;;;8.77;;
15354;SDS011;7777;52.254;9.618;2024-03-02T01:03:42;9.87;;;8.03;;
15354;SDS011;7777;52.254;9.618;2024-03-02T01:06:08;11.93;;;8.90;;
15354;SDS011;7777;52.254;9.618;2024-03-02T01:08:34;12.07;;;8.43;;
15354;SDS011;7777;52.254;9.618;2024-03-02T01:11:01;13.40;;;9.67;;
15354;SDS011;7777;52.254;9.618;2024-03-02T01:13:28;12.30;;;8.57;;
15354;SDS011;7777;52.254;9.618;2024-03-02T01:15:54;14.13;;;9.10;;
15354;SDS011;7777;52.254;9.618;2024-03-02T01:18:19;13.50;;;9.80;;
15354;SDS011;7777;52.254;9.618;2024-03-02T01:20:47;11.40;;;9.43;;
15354;SDS011;7777;52.254;9.618;2024-03-02T01:23:13;16.87;;;10.90;;
15354;SDS011;7777;52.254;9.618;2024-03-02T01:25:40;16.80;;;10.90;;
15354;SDS011;7777;52.254;9.618;2024-03-02T01:28:06;14.00;;;10.77;;
15354;SDS011;7777;52.254;9.618;2024-03-02T01:30:31;13.23;;;10.43;;
15354;SDS011;7777;52.254;9.618;2024-03-02T01:32:57;16.43;;;10.93;;
15354;SDS011;7777;52.254;9.618;2024-03-02T01:35:25;14.97;;;11.37;;
15354;SDS011;7777;52.254;9.618;2024-03-02T01:37:51;15.87;;;10.60;;
15354;SDS011;7777;52.254;9.618;2024-03-02T01:40:17;15.03;;;9.37;;
15354;SDS011;7777;52.254;9.618;2024-03-02T01:42:43;11.97;;;10.27;;
15354;SDS011;7777;52.254;9.618;2024-03-02T01:45:09;12.67;;;10.53;;
15354;SDS011;7777;52.254;9.618;2024-03-02T01:47:34;15.83;;;10.73;;
15354;SDS011;7777;52.254;9.618;2024-03-02T01:50:00;14.03;;;10.70;;
15354;SDS011;7777;52.254;9.618;2024-03-02T01:52:27;16.30;;;11.37;;
15354;SDS011;7777;52.254;9.618;2024-03-02T01:54:53;18.43;;;11.93;;
15354;SDS011;7777;52.254;9.618;2024-03-02T01:57:20;14.47;;;10.90;;
15354;SDS011;7777;52.254;9.618;2024-03-02T01:59:46;15.97;;;11.47;;
15354;SDS011;7777;52.254;9.618;2024-03-02T02:02:15;16.93;;;12.37;;
15354;SDS011;7777;52.254;9.618;2024-03-02T02:04:42;15.93;;;11.47;;
15354;SDS011;7777;52.254;9.618;2024-03-02T02:07:08;19.23;;;13.17;;
15354;SDS011;7777;52.254;9.618;2024-03-02T02:09:35;19.73;;;13.80;;
15354;SDS011;7777;52.254;9.618;2024-03-02T02:12:01;17.80;;;12.63;;
15354;SDS011;7777;52.254;9.618;2024-03-02T02:14:27;18.83;;;13.47;;
15354;SDS011;7777;52.254;9.618;2024-03-02T02:16:53;22.23;;;13.70;;
15354;SDS011;7777;52.254;9.618;2024-03-02T02:19:19;22.47;;;15.20;;
15354;SDS011;7777;52.254;9.618;2024-03-02T02:21:47;18.87;;;14.37;;
15354;SDS011;7777;52.254;9.618;2024-03-02T02:24:13;20.60;;;14.30;;
15354;SDS011;7777;52.254;9.618;2024-03-02T02:26:39;20.33;;;14.43;;
15354;SDS011;7777;52.254;9.618;2024-03-02T02:29:05;20.53;;;14.83;;
15354;SDS011;7777;52.254;9.618;2024-03-02T02:31:41;20.37;;;15.07;;
15354;SDS011;7777;52.254;9.618;2024-03-02T02:34:07;21.40;;;15.03;;
15354;SDS011;7777;52.254;9.618;2024-03-02T02:36:34;24.67;;;16.10;;
15354;SDS011;7777;52.254;9.618;2024-03-02T02:39:02;22.43;;;15.67;;
15354;SDS011;7777;52.254;9.618;2024-03-02T02:41:30;20.83;;;15.70;;
15354;SDS011;7777;52.254;9.618;2024-03-02T02:43:56;22.57;;;15.97;;
15354;SDS011;7777;52.254;9.618;2024-03-02T02:46:21;25.00;;;16.43;;
15354;SDS011;7777;52.254;9.618;2024-03-02T02:48:47;22.67;;;15.60;;
15354;SDS011;7777;52.254;9.618;2024-03-02T02:51:13;18.97;;;13.60;;
15354;SDS011;7777;52.254;9.618;2024-03-02T02:53:40;20.70;;;14.40;;
15354;SDS011;7777;52.254;9.618;2024-03-02T02:56:06;22.80;;;15.10;;
15354;SDS011;7777;52.254;9.618;2024-03-02T02:58:32;20.23;;;15.33;;
15354;SDS011;7777;52.254;9.618;2024-03-02T03:00:57;21.37;;;15.27;;
15354;SDS011;7777;52.254;9.618;2024-03-02T03:03:23;22.50;;;14.77;;
15354;SDS011;7777;52.254;9.618;2024-03-02T03:05:49;20.00;;;14.57;;
15354;SDS011;7777;52.254;9.618;2024-03-02T03:08:15;21.10;;;14.80;;
15354;SDS011;7777;52.254;9.618;2024-03-02T03:10:42;21.20;;;14.53;;
15354;SDS011;7777;52.254;9.618;2024-03-02T03:13:07;26.10;;;17.50;;
15354;SDS011;7777;52.254;9.618;2024-03-02T03:15:37;31.23;;;16.63;;
15354;SDS011;7777;52.254;9.618;2024-03-02T03:18:03;23.23;;;14.60;;
15354;SDS011;7777;52.254;9.618;2024-03-02T03:20:30;20.20;;;14.67;;
15354;SDS011;7777;52.254;9.618;2024-03-02T03:22:59;21.63;;;14.60;;
15354;SDS011;7777;52.254;9.618;2024-03-02T03:25:25;22.07;;;14.57;;
15354;SDS011;7777;52.254;9.618;2024-03-02T03:27:52;29.57;;;16.00;;
15354;SDS011;7777;52.254;9.618;2024-03-02T03:30:18;23.37;;;16.27;;
15354;SDS011;7777;52.254;9.618;2024-03-02T03:32:43;24.40;;;17.17;;
15354;SDS011;7777;52.254;9.618;2024-03-02T03:35:09;27.40;;;16.33;;
15354;SDS011;7777;52.254;9.618;2024-03-02T03:37:37;25.33;;;16.57;;
15354;SDS011;7777;52.254;9.618;2024-03-02T03:40:03;22.43;;;15.63;;
15354;SDS011;7777;52.254;9.618;2024-03-02T03:42:34;25.37;;;17.00;;
15354;SDS011;7777;52.254;9.618;2024-03-02T03:45:04;23.37;;;16.13;;
15354;SDS011;7777;52.254;9.618;2024-03-02T03:47:31;24.13;;;16.03;;
15354;SDS011;7777;52.254;9.618;2024-03-02T03:49:57;24.97;;;17.07;;
15354;SDS011;7777;52.254;9.618;2024-03-02T03:52:23;26.30;;;17.80;;
15354;SDS011;7777;52.254;9.618;2024-03-02T03:54:50;25.97;;;17.90;;
15354;SDS011;7777;52.254;9.618;2024-03-02T03:57:16;25.53;;;17.77;;
15354;SDS011;7777;52.254;9.618;2024-03-02T03:59:42;27.43;;;17.07;;
15354;SDS011;7777;52.254;9.618;2024-03-02T04:02:08;26.13;;;17.10;;
15354;SDS011;7777;52.254;9.618;2024-03-02T04:04:34;26.43;;;16.87;;
15354;SDS011;7777;52.254;9.618;2024-03-02T04:07:00;25.50;;;16.33;;
15354;SDS011;7777;52.254;9.618;2024-03-02T04:09:27;23.43;;;16.63;;
15354;SDS011;7777;52.254;9.618;2024-03-02T04:11:52;23.60;;;16.33;;
15354;SDS011;7777;52.254;9.618;2024-03-02T04:14:19;24.57;;;16.07;;
15354;SDS011;7777;52.254;9.618;2024-03-02T04:16:44;25.63;;;16.97;;
15354;SDS011;7777;52.254;9.618;2024-03-02T04:19:10;28.30;;;16.60;;
15354;SDS011;7777;52.254;9.618;2024-03-02T04:21:36;24.60;;;16.17;;
15354;SDS011;7777;52.254;9.618;2024-03-02T04:24:02;26.03;;;16.23;;
15354;SDS011;7777;52.254;9.618;2024-03-02T04:26:28;24.33;;;16.63;;
15354;SDS011;7777;52.254;9.618;2024-03-02T04:28:54;24.57;;;15.83;;
15354;SDS011;7777;52.254;9.618;2024-03-02T04:31:20;25.77;;;17.07;;
15354;SDS011;7777;52.254;9.618;2024-03-02T04:33:46;27.27;;;17.17;;
15354;SDS011;7777;52.254;9.618;2024-03-02T04:36:12;24.47;;;16.00;;
15354;SDS011;7777;52.254;9.618;2024-03-02T04:38:38;22.97;;;15.97;;
15354;SDS011;7777;52.254;9.618;2024-03-02T04:41:06;23.10;;;16.37;;
15354;SDS011;7777;52.254;9.618;2024-03-02T04:43:32;24.70;;;15.80;;
15354;SDS011;7777;52.254;9.618;2024-03-02T04:45:59;24.73;;;17.40;;
15354;SDS011;7777;52.254;9.618;2024-03-02T04:48:26;23.60;;;16.33;;
15354;SDS011;7777;52.254;9.618;2024-03-02T04:50:52;24.33;;;15.13;;
15354;SDS011;7777;52.254;9.618;2024-03-02T04:53:17;27.33;;;17.20;;
15354;SDS011;7777;52.254;9.618;2024-03-02T04:55:44;23.67;;;15.57;;
15354;SDS011;7777;52.254;9.618;2024-03-02T04:58:09;23.13;;;15.60;;
15354;SDS011;7777;52.254;9.618;2024-03-02T05:00:35;23.03;;;16.17;;
15354;SDS011;7777;52.254;9.618;2024-03-02T05:03:01;26.20;;;18.00;;
15354;SDS011;7777;52.254;9.618;2024-03-02T05:05:27;28.03;;;17.40;;
15354;SDS011;7777;52.254;9.618;2024-03-02T05:07:53;25.50;;;17.30;;
15354;SDS011;7777;52.254;9.618;2024-03-02T05:10:19;30.17;;;19.07;;
15354;SDS011;7777;52.254;9.618;2024-03-02T05:12:45;27.93;;;18.87;;
15354;SDS011;7777;52.254;9.618;2024-03-02T05:15:11;28.00;;;18.03;;
15354;SDS011;7777;52.254;9.618;2024-03-02T05:17:39;26.53;;;18.20;;
15354;SDS011;7777;52.254;9.618;2024-03-02T05:20:09;28.97;;;19.10;;
15354;SDS011;7777;52.254;9.618;2024-03-02T05:22:37;28.40;;;18.57;;
15354;SDS011;7777;52.254;9.618;2024-03-02T05:25:03;34.10;;;19.60;;
15354;SDS011;7777;52.254;9.618;2024-03-02T05:27:31;26.33;;;19.27;;
15354;SDS011;7777;52.254;9.618;2024-03-02T05:30:00;26.17;;;18.93;;
15354;SDS011;7777;52.254;9.618;2024-03-02T05:32:26;30.37;;;20.13;;
15354;SDS011;7777;52.254;9.618;2024-03-02T05:34:52;27.40;;;18.13;;
15354;SDS011;7777;52.254;9.618;2024-03-02T05:37:18;28.73;;;19.10;;
15354;SDS011;7777;52.254;9.618;2024-03-02T05:39:45;29.23;;;18.93;;
15354;SDS011;7777;52.254;9.618;2024-03-02T05:42:10;27.23;;;18.43;;
15354;SDS011;7777;52.254;9.618;2024-03-02T05:44:38;28.90;;;19.27;;
15354;SDS011;7777;52.254;9.618;2024-03-02T05:47:04;26.37;;;18.30;;
15354;SDS011;7777;52.254;9.618;2024-03-02T05:49:33;31.80;;;19.63;;
15354;SDS011;7777;52.254;9.618;2024-03-02T05:51:59;31.40;;;20.03;;
15354;SDS011;7777;52.254;9.618;2024-03-02T05:54:25;28.13;;;18.90;;
15354;SDS011;7777;52.254;9.618;2024-03-02T05:56:51;29.03;;;19.53;;
15354;SDS011;7777;52.254;9.618;2024-03-02T05:59:17;29.60;;;19.20;;
15354;SDS011;7777;52.254;9.618;2024-03-02T06:01:43;28.03;;;18.63;;
15354;SDS011;7777;52.254;9.618;2024-03-02T06:04:13;31.67;;;19.87;;
15354;SDS011;7777;52.254;9.618;2024-03-02T06:06:40;25.97;;;17.30;;
15354;SDS011;7777;52.254;9.618;2024-03-02T06:09:06;32.87;;;19.67;;
15354;SDS011;7777;52.254;9.618;2024-03-02T06:11:39;27.70;;;18.30;;
15354;SDS011;7777;52.254;9.618;2024-03-02T06:14:06;27.17;;;17.57;;
15354;SDS011;7777;52.254;9.618;2024-03-02T06:16:33;27.90;;;18.93;;
15354;SDS011;7777;52.254;9.618;2024-03-02T06:18:59;32.10;;;20.07;;
15354;SDS011;7777;52.254;9.618;2024-03-02T06:21:25;31.03;;;19.93;;
15354;SDS011;7777;52.254;9.618;2024-03-02T06:23:52;29.60;;;19.93;;
15354;SDS011;7777;52.254;9.618;2024-03-02T06:26:18;29.80;;;20.23;;
15354;SDS011;7777;52.254;9.618;2024-03-02T06:28:44;34.67;;;20.40;;
15354;SDS011;7777;52.254;9.618;2024-03-02T06:31:11;32.20;;;19.50;;
15354;SDS011;7777;52.254;9.618;2024-03-02T06:33:36;27.43;;;18.67;;
15354;SDS011;7777;52.254;9.618;2024-03-02T06:36:02;29.27;;;18.37;;
15354;SDS011;7777;52.254;9.618;2024-03-02T06:38:29;28.33;;;18.07;;
15354;SDS011;7777;52.254;9.618;2024-03-02T06:40:57;29.63;;;18.20;;
15354;SDS011;7777;52.254;9.618;2024-03-02T06:43:22;29.57;;;18.93;;
15354;SDS011;7777;52.254;9.618;2024-03-02T06:45:49;29.23;;;19.93;;
15354;SDS011;7777;52.254;9.618;2024-03-02T06:48:16;31.03;;;21.37;;
15354;SDS011;7777;52.254;9.618;2024-03-02T06:50:47;31.93;;;20.63;;
15354;SDS011;7777;52.254;9.618;2024-03-02T06:53:15;27.03;;;18.63;;
15354;SDS011;7777;52.254;9.618;2024-03-02T06:55:45;27.83;;;18.73;;
15354;SDS011;7777;52.254;9.618;2024-03-02T06:58:11;29.70;;;18.07;;
15354;SDS011;7777;52.254;9.618;2024-03-02T07:00:40;27.37;;;18.30;;
15354;SDS011;7777;52.254;9.618;2024-03-02T07:03:06;28.40;;;18.87;;
15354;SDS011;7777;52.254;9.618;2024-03-02T07:05:32;32.50;;;20.20;;
15354;SDS011;7777;52.254;9.618;2024-03-02T07:07:58;29.87;;;19.37;;
15354;SDS011;7777;52.254;9.618;2024-03-02T07:10:24;32.03;;;19.93;;
15354;SDS011;7777;52.254;9.618;2024-03-02T07:12:50;27.70;;;18.97;;
15354;SDS011;7777;52.254;9.618;2024-03-02T07:15:16;28.73;;;17.90;;
15354;SDS011;7777;52.254;9.618;2024-03-02T07:18:08;31.47;;;19.63;;
15354;SDS011;7777;52.254;9.618;2024-03-02T07:20:33;27.93;;;18.77;;
15354;SDS011;7777;52.254;9.618;2024-03-02T07:22:59;29.80;;;18.90;;
15354;SDS011;7777;52.254;9.618;2024-03-02T07:25:25;26.17;;;19.00;;
15354;SDS011;7777;52.254;9.618;2024-03-02T07:27:51;26.80;;;19.30;;
15354;SDS011;7777;52.254;9.618;2024-03-02T07:30:17;29.13;;;19.80;;
15354;SDS011;7777;52.254;9.618;2024-03-02T07:32:43;30.47;;;20.13;;
15354;SDS011;7777;52.254;9.618;2024-03-02T07:35:11;29.53;;;18.63;;
15354;SDS011;7777;52.254;9.618;2024-03-02T07:37:38;29.30;;;19.27;;
15354;SDS011;7777;52.254;9.618;2024-03-02T07:40:04;30.03;;;19.17;;
15354;SDS011;7777;52.254;9.618;2024-03-02T07:42:36;28.20;;;20.10;;
15354;SDS011;7777;52.254;9.618;2024-03-02T07:45:04;27.57;;;18.27;;
15354;SDS011;7777;52.254;9.618;2024-03-02T07:47:31;30.07;;;19.00;;
15354;SDS011;7777;52.254;9.618;2024-03-02T07:50:00;31.77;;;18.60;;
15354;SDS011;7777;52.254;9.618;2024-03-02T07:52:27;27.73;;;19.70;;
15354;SDS011;7777;52.254;9.618;2024-03-02T07:54:56;27.70;;;18.87;;
15354;SDS011;7777;52.254;9.618;2024-03-02T07:57:21;31.93;;;18.40;;
15354;SDS011;7777;52.254;9.618;2024-03-02T07:59:47;25.93;;;17.70;;
15354;SDS011;7777;52.254;9.618;2024-03-02T08:02:14;27.27;;;17.83;;
15354;SDS011;7777;52.254;9.618;2024-03-02T08:04:40;26.50;;;18.03;;
15354;SDS011;7777;52.254;9.618;2024-03-02T08:07:06;27.47;;;18.97;;
15354;SDS011;7777;52.254;9.618;2024-03-02T08:09:33;25.27;;;17.53;;
15354;SDS011;7777;52.254;9.618;2024-03-02T08:11:59;25.83;;;17.70;;
15354;SDS011;7777;52.254;9.618;2024-03-02T08:14:24;28.60;;;17.57;;
15354;SDS011;7777;52.254;9.618;2024-03-02T08:16:50;26.73;;;16.53;;
15354;SDS011;7777;52.254;9.618;2024-03-02T08:19:16;27.83;;;18.03;;
15354;SDS011;7777;52.254;9.618;2024-03-02T08:21:42;26.83;;;18.57;;
15354;SDS011;7777;52.254;9.618;2024-03-02T08:24:09;25.53;;;17.20;;
15354;SDS011;7777;52.254;9.618;2024-03-02T08:26:34;25.83;;;16.63;;
15354;SDS011;7777;52.254;9.618;2024-03-02T08:29:00;22.20;;;15.67;;
15354;SDS011;7777;52.254;9.618;2024-03-02T08:31:29;22.50;;;15.83;;
15354;SDS011;7777;52.254;9.618;2024-03-02T08:33:55;21.07;;;15.73;;
15354;SDS011;7777;52.254;9.618;2024-03-02T08:36:22;24.23;;;17.10;;
15354;SDS011;7777;52.254;9.618;2024-03-02T08:38:51;26.23;;;17.07;;
15354;SDS011;7777;52.254;9.618;2024-03-02T08:41:18;22.10;;;15.47;;
15354;SDS011;7777;52.254;9.618;2024-03-02T08:43:43;21.90;;;15.50;;
15354;SDS011;7777;52.254;9.618;2024-03-02T08:46:09;20.50;;;14.70;;
15354;SDS011;7777;52.254;9.618;2024-03-02T08:48:35;21.43;;;15.80;;
15354;SDS011;7777;52.254;9.618;2024-03-02T08:51:01;22.67;;;16.27;;
15354;SDS011;7777;52.254;9.618;2024-03-02T08:53:29;24.80;;;16.80;;
15354;SDS011;7777;52.254;9.618;2024-03-02T08:55:55;25.33;;;17.40;;
15354;SDS011;7777;52.254;9.618;2024-03-02T08:58:21;26.30;;;18.47;;
15354;SDS011;7777;52.254;9.618;2024-03-02T09:00:47;23.70;;;16.37;;
15354;SDS011;7777;52.254;9.618;2024-03-02T09:03:13;24.30;;;16.57;;
15354;SDS011;7777;52.254;9.618;2024-03-02T09:05:39;25.00;;;17.00;;
15354;SDS011;7777;52.254;9.618;2024-03-02T09:08:06;23.57;;;16.33;;
15354;SDS011;7777;52.254;9.618;2024-03-02T09:10:32;27.20;;;16.97;;
15354;SDS011;7777;52.254;9.618;2024-03-02T09:12:58;25.07;;;16.43;;
15354;SDS011;7777;52.254;9.618;2024-03-02T09:15:24;24.37;;;16.87;;
15354;SDS011;7777;52.254;9.618;2024-03-02T09:17:50;27.07;;;17.27;;
15354;SDS011;7777;52.254;9.618;2024-03-02T09:20:16;25.10;;;17.13;;
15354;SDS011;7777;52.254;9.618;2024-03-02T09:22:42;23.07;;;16.90;;
15354;SDS011;7777;52.254;9.618;2024-03-02T09:25:07;22.30;;;16.00;;
15354;SDS011;7777;52.254;9.618;2024-03-02T09:27:35;20.43;;;16.33;;
15354;SDS011;7777;52.254;9.618;2024-03-02T09:30:04;22.00;;;16.33;;
15354;SDS011;7777;52.254;9.618;2024-03-02T09:32:34;23.37;;;16.50;;
15354;SDS011;7777;52.254;9.618;2024-03-02T09:35:00;23.13;;;16.30;;
15354;SDS011;7777;52.254;9.618;2024-03-02T09:37:25;23.37;;;14.90;;
15354;SDS011;7777;52.254;9.618;2024-03-02T09:39:51;25.40;;;16.70;;
15354;SDS011;7777;52.254;9.618;2024-03-02T09:42:17;23.57;;;16.57;;
15354;SDS011;7777;52.254;9.618;2024-03-02T09:44:43;25.50;;;16.50;;
15354;SDS011;7777;52.254;9.618;2024-03-02T09:47:09;20.60;;;14.57;;
15354;SDS011;7777;52.254;9.618;2024-03-02T09:49:37;26.63;;;16.83;;
15354;SDS011;7777;52.254;9.618;2024-03-02T09:52:03;24.67;;;15.87;;
15354;SDS011;7777;52.254;9.618;2024-03-02T09:54:31;19.40;;;14.30;;
15354;SDS011;7777;52.254;9.618;2024-03-02T09:56:56;21.57;;;15.33;;
15354;SDS011;7777;52.254;9.618;2024-03-02T09:59:22;21.03;;;14.73;;
15354;SDS011;7777;52.254;9.618;2024-03-02T10:01:58;21.53;;;15.50;;
15354;SDS011;7777;52.254;9.618;2024-03-02T10:04:28;21.70;;;14.43;;
15354;SDS011;7777;52.254;9.618;2024-03-02T10:07:13;20.23;;;14.13;;
15354;SDS011;7777;52.254;9.618;2024-03-02T10:09:41;20.30;;;15.07;;
15354;SDS011;7777;52.254;9.618;2024-03-02T10:12:09;21.43;;;14.80;;
15354;SDS011;7777;52.254;9.618;2024-03-02T10:14:37;20.53;;;13.97;;
15354;SDS011;7777;52.254;9.618;2024-03-02T10:19:39;20.07;;;14.13;;
15354;SDS011;7777;52.254;9.618;2024-03-02T10:22:05;19.63;;;13.47;;
15354;SDS011;7777;52.254;9.618;2024-03-02T10:24:37;15.60;;;12.07;;
15354;SDS011;7777;52.254;9.618;2024-03-02T10:27:10;18.53;;;13.00;;
15354;SDS011;7777;52.254;9.618;2024-03-02T10:29:41;20.07;;;14.37;;
15354;SDS011;7777;52.254;9.618;2024-03-02T10:32:10;19.30;;;14.13;;
15354;SDS011;7777;52.254;9.618;2024-03-02T10:34:37;19.23;;;13.73;;
15354;SDS011;7777;52.254;9.618;2024-03-02T10:37:07;20.33;;;14.23;;
15354;SDS011;7777;52.254;9.618;2024-03-02T10:39:36;22.77;;;15.93;;
15354;SDS011;7777;52.254;9.618;2024-03-02T10:42:04;19.33;;;14.27;;
15354;SDS011;7777;52.254;9.618;2024-03-02T10:44:31;20.60;;;15.07;;
15354;SDS011;7777;52.254;9.618;2024-03-02T10:47:01;20.47;;;14.67;;
15354;SDS011;7777;52.254;9.618;2024-03-02T10:49:30;18.93;;;14.43;;
15354;SDS011;7777;52.254;9.618;2024-03-02T10:52:00;17.80;;;14.20;;
15354;SDS011;7777;52.254;9.618;2024-03-02T10:54:27;16.93;;;12.07;;
15354;SDS011;7777;52.254;9.618;2024-03-02T10:57:00;19.33;;;13.27;;
15354;SDS011;7777;52.254;9.618;2024-03-02T10:59:31;17.70;;;13.20;;
15354;SDS011;7777;52.254;9.618;2024-03-02T11:01:59;16.13;;;11.93;;
15354;SDS011;7777;52.254;9.618;2024-03-02T11:04:27;13.67;;;10.43;;
15354;SDS011;7777;52.254;9.618;2024-03-02T11:06:56;11.93;;;8.33;;
15354;SDS011;7777;52.254;9.618;2024-03-02T11:09:30;13.13;;;7.57;;
15354;SDS011;7777;52.254;9.618;2024-03-02T11:12:04;13.80;;;7.73;;
15354;SDS011;7777;52.254;9.618;2024-03-02T11:14:42;10.93;;;7.40;;
15354;SDS011;7777;52.254;9.618;2024-03-02T11:17:08;10.80;;;7.17;;
15354;SDS011;7777;52.254;9.618;2024-03-02T11:19:36;14.23;;;8.53;;
15354;SDS011;7777;52.254;9.618;2024-03-02T11:22:06;17.23;;;11.23;;
15354;SDS011;7777;52.254;9.618;2024-03-02T11:24:33;16.90;;;12.13;;
15354;SDS011;7777;52.254;9.618;2024-03-02T11:27:00;16.37;;;11.40;;
15354;SDS011;7777;52.254;9.618;2024-03-02T11:32:06;16.30;;;12.33;;
15354;SDS011;7777;52.254;9.618;2024-03-02T11:34:40;16.37;;;10.93;;
15354;SDS011;7777;52.254;9.618;2024-03-02T11:37:11;18.47;;;12.00;;
15354;SDS011;7777;52.254;9.618;2024-03-02T11:39:39;15.53;;;10.47;;
15354;SDS011;7777;52.254;9.618;2024-03-02T11:42:06;13.30;;;10.00;;
15354;SDS011;7777;52.254;9.618;2024-03-02T11:44:34;14.90;;;10.20;;
15354;SDS011;7777;52.254;9.618;2024-03-02T11:47:02;15.23;;;10.70;;
15354;SDS011;7777;52.254;9.618;2024-03-02T11:49:46;16.40;;;11.00;;
15354;SDS011;7777;52.254;9.618;2024-03-02T11:52:16;17.03;;;11.20;;
15354;SDS011;7777;52.254;9.618;2024-03-02T11:54:44;14.90;;;10.37;;
15354;SDS011;7777;52.254;9.618;2024-03-02T11:57:17;15.80;;;10.90;;
15354;SDS011;7777;52.254;9.618;2024-03-02T11:59:47;16.37;;;11.53;;
15354;SDS011;7777;52.254;9.618;2024-03-02T12:02:20;23.50;;;11.43;;
15354;SDS011;7777;52.254;9.618;2024-03-02T12:04:47;15.17;;;10.53;;
15354;SDS011;7777;52.254;9.618;2024-03-02T12:07:23;15.70;;;10.57;;
15354;SDS011;7777;52.254;9.618;2024-03-02T12:09:49;15.30;;;10.30;;
15354;SDS011;7777;52.254;9.618;2024-03-02T12:12:26;12.70;;;9.03;;
15354;SDS011;7777;52.254;9.618;2024-03-02T12:14:53;13.07;;;8.90;;
15354;SDS011;7777;52.254;9.618;2024-03-02T12:17:20;14.67;;;9.93;;
15354;SDS011;7777;52.254;9.618;2024-03-02T12:19:47;13.17;;;9.60;;
15354;SDS011;7777;52.254;9.618;2024-03-02T12:22:13;14.70;;;8.97;;
15354;SDS011;7777;52.254;9.618;2024-03-02T12:24:40;12.40;;;8.93;;
15354;SDS011;7777;52.254;9.618;2024-03-02T12:27:06;12.87;;;9.30;;
15354;SDS011;7777;52.254;9.618;2024-03-02T12:29:33;13.57;;;8.37;;
15354;SDS011;7777;52.254;9.618;2024-03-02T12:31:59;11.20;;;8.00;;
15354;SDS011;7777;52.254;9.618;2024-03-02T12:34:27;13.83;;;9.63;;
15354;SDS011;7777;52.254;9.618;2024-03-02T12:36:53;12.17;;;8.13;;
15354;SDS011;7777;52.254;9.618;2024-03-02T12:39:19;11.37;;;8.13;;
15354;SDS011;7777;52.254;9.618;2024-03-02T12:41:47;10.67;;;8.23;;
15354;SDS011;7777;52.254;9.618;2024-03-02T12:44:17;12.27;;;8.73;;
15354;SDS011;7777;52.254;9.618;2024-03-02T12:46:44;10.17;;;7.43;;
15354;SDS011;7777;52.254;9.618;2024-03-02T12:49:12;10.47;;;7.20;;
15354;SDS011;7777;52.254;9.618;2024-03-02T12:51:43;12.80;;;8.20;;
15354;SDS011;7777;52.254;9.618;2024-03-02T12:54:12;12.40;;;8.33;;
15354;SDS011;7777;52.254;9.618;2024-03-02T12:56:37;13.00;;;8.43;;
15354;SDS011;7777;52.254;9.618;2024-03-02T12:59:03;11.97;;;8.20;;
15354;SDS011;7777;52.254;9.618;2024-03-02T13:01:30;12.67;;;9.17;;
15354;SDS011;7777;52.254;9.618;2024-03-02T13:03:57;10.40;;;8.00;;
15354;SDS011;7777;52.254;9.618;2024-03-02T13:06:24;12.40;;;8.50;;
15354;SDS011;7777;52.254;9.618;2024-03-02T13:08:53;12.20;;;8.97;;
15354;SDS011;7777;52.254;9.618;2024-03-02T13:11:20;11.57;;;7.70;;
15354;SDS011;7777;52.254;9.618;2024-03-02T13:13:49;11.90;;;7.70;;
15354;SDS011;7777;52.254;9.618;2024-03-02T13:16:15;12.37;;;9.00;;
15354;SDS011;7777;52.254;9.618;2024-03-02T13:18:44;11.73;;;7.77;;
15354;SDS011;7777;52.254;9.618;2024-03-02T13:21:10;11.77;;;8.03;;
15354;SDS011;7777;52.254;9.618;2024-03-02T13:23:36;9.90;;;7.43;;
15354;SDS011;7777;52.254;9.618;2024-03-02T13:26:02;10.30;;;7.13;;
15354;SDS011;7777;52.254;9.618;2024-03-02T13:28:28;9.13;;;6.50;;
15354;SDS011;7777;52.254;9.618;2024-03-02T13:30:54;8.47;;;6.80;;
15354;SDS011;7777;52.254;9.618;2024-03-02T13:33:19;9.93;;;6.93;;
15354;SDS011;7777;52.254;9.618;2024-03-02T13:35:49;9.40;;;6.53;;
15354;SDS011;7777;52.254;9.618;2024-03-02T13:38:18;8.43;;;6.20;;
15354;SDS011;7777;52.254;9.618;2024-03-02T13:40:45;12.73;;;7.17;;
15354;SDS011;7777;52.254;9.618;2024-03-02T13:43:16;12.87;;;6.50;;
15354;SDS011;7777;52.254;9.618;2024-03-02T13:45:43;9.20;;;6.53;;
15354;SDS011;7777;52.254;9.618;2024-03-02T13:48:09;8.23;;;5.90;;
15354;SDS011;7777;52.254;9.618;2024-03-02T13:50:35;8.17;;;6.00;;
15354;SDS011;7777;52.254;9.618;2024-03-02T13:53:01;8.60;;;5.90;;
15354;SDS011;7777;52.254;9.618;2024-03-02T13:55:28;10.13;;;5.77;;
15354;SDS011;7777;52.254;9.618;2024-03-02T13:57:53;9.97;;;6.27;;
15354;SDS011;7777;52.254;9.618;2024-03-02T14:00:20;7.83;;;5.63;;
15354;SDS011;7777;52.254;9.618;2024-03-02T14:02:46;9.93;;;6.30;;
15354;SDS011;7777;52.254;9.618;2024-03-02T14:05:15;8.93;;;5.60;;
15354;SDS011;7777;52.254;9.618;2024-03-02T14:07:41;8.00;;;5.80;;
15354;SDS011;7777;52.254;9.618;2024-03-02T14:10:08;8.67;;;5.80;;
15354;SDS011;7777;52.254;9.618;2024-03-02T14:12:34;9.40;;;5.87;;
15354;SDS011;7777;52.254;9.618;2024-03-02T14:15:01;10.00;;;6.43;;
15354;SDS011;7777;52.254;9.618;2024-03-02T14:17:27;11.83;;;6.20;;
15354;SDS011;7777;52.254;9.618;2024-03-02T14:19:53;8.63;;;5.93;;
15354;SDS011;7777;52.254;9.618;2024-03-02T14:22:19;8.83;;;6.20;;
15354;SDS011;7777;52.254;9.618;2024-03-02T14:24:45;9.27;;;6.20;;
15354;SDS011;7777;52.254;9.618;2024-03-02T14:27:12;7.90;;;5.80;;
15354;SDS011;7777;52.254;9.618;2024-03-02T14:29:39;8.13;;;6.13;;
15354;SDS011;7777;52.254;9.618;2024-03-02T14:32:06;8.40;;;5.47;;
15354;SDS011;7777;52.254;9.618;2024-03-02T14:34:32;8.53;;;5.73;;
15354;SDS011;7777;52.254;9.618;2024-03-02T14:36:58;7.50;;;5.33;;
15354;SDS011;7777;52.254;9.618;2024-03-02T14:39:25;7.93;;;5.07;;
15354;SDS011;7777;52.254;9.618;2024-03-02T14:41:51;12.57;;;5.67;;
15354;SDS011;7777;52.254;9.618;2024-03-02T14:44:17;6.90;;;5.00;;
15354;SDS011;7777;52.254;9.618;2024-03-02T14:46:43;7.43;;;4.57;;
15354;SDS011;7777;52.254;9.618;2024-03-02T14:49:12;8.17;;;4.70;;
15354;SDS011;7777;52.254;9.618;2024-03-02T14:51:39;8.10;;;5.07;;
15354;SDS011;7777;52.254;9.618;2024-03-02T14:54:04;6.67;;;4.57;;
15354;SDS011;7777;52.254;9.618;2024-03-02T14:56:30;6.77;;;4.40;;